Time;durP1;ratioP1;P1;durP2;ratioP2;P2;SDS_P1;SDS_P2;PMS_P1;PMS_P2;Temp;Humidity;BMP_temperature;BMP_pressure;BME280_temperature;BME280_humidity;BME280_pressure;Samples;Min_cycle;Max_cycle;Signal;HPM_P1;HPM_P2
2023/01/15 00:00:45;;;;;;;6.80;2.15;;;;;;;6.27;99.56;99874.75;5054219;28;20032;-56
2023/01/15 00:03:11;;;;;;;6.93;2.22;;;;;;;6.26;99.79;99861.66;5053918;28;20104;-56
2023/01/15 00:05:36;;;;;;;10.68;1.95;;;;;;;6.23;99.78;99865.38;5048894;28;20029;-56
2023/01/15 00:08:01;;;;;;;7.93;1.95;;;;;;;6.21;100.00;99869.94;5053749;28;20119;-57
2023/01/15 00:10:27;;;;;;;6.63;2.22;;;;;;;6.17;100.00;99871.09;5046565;28;20021;-57
2023/01/15 00:12:52;;;;;;;14.98;2.42;;;;;;;6.17;100.00;99872.91;5051511;28;20025;-58
2023/01/15 00:15:18;;;;;;;8.23;2.47;;;;;;;6.14;100.00;99873.13;5053601;28;20059;-57
2023/01/15 00:17:43;;;;;;;10.85;2.72;;;;;;;6.13;100.00;99866.16;5053478;28;20025;-57
2023/01/15 00:20:09;;;;;;;9.90;2.60;;;;;;;6.10;100.00;99860.16;5053649;28;20029;-57
2023/01/15 00:22:34;;;;;;;9.32;2.75;;;;;;;6.10;100.00;99872.53;5049861;28;20029;-53
2023/01/15 00:27:44;;;;;;;7.60;2.38;;;;;;;6.07;100.00;99857.75;5051963;28;20043;-56
2023/01/15 00:30:13;;;;;;;10.85;2.35;;;;;;;6.06;100.00;99849.97;5045381;28;20021;-56
2023/01/15 00:32:40;;;;;;;14.20;2.60;;;;;;;6.05;100.00;99862.31;5048835;28;20414;-56
2023/01/15 00:35:07;;;;;;;8.45;2.22;;;;;;;6.03;100.00;99855.44;5052859;28;20459;-56
2023/01/15 00:37:32;;;;;;;10.60;2.33;;;;;;;6.01;100.00;99855.59;5052077;28;20033;-57
2023/01/15 00:39:57;;;;;;;7.57;2.13;;;;;;;6.00;100.00;99861.81;5034975;28;20075;-55
2023/01/15 00:42:22;;;;;;;9.25;2.25;;;;;;;5.99;100.00;99865.38;5052340;28;20079;-54
2023/01/15 00:44:48;;;;;;;8.15;2.35;;;;;;;5.97;100.00;99867.31;5035158;28;20063;-55
2023/01/15 00:47:14;;;;;;;9.00;2.45;;;;;;;5.96;100.00;99873.50;5050095;28;20037;-53
2023/01/15 00:49:43;;;;;;;12.90;2.47;;;;;;;5.94;100.00;99875.38;5052047;28;20036;-56
2023/01/15 00:52:09;;;;;;;8.63;2.13;;;;;;;5.92;100.00;99872.03;5053190;28;20039;-57
2023/01/15 00:54:34;;;;;;;10.80;2.65;;;;;;;5.90;99.96;99876.59;5052756;28;20067;-57
2023/01/15 00:56:59;;;;;;;8.55;2.25;;;;;;;5.88;99.52;99879.31;5053668;28;20479;-56
2023/01/15 00:59:25;;;;;;;10.27;2.65;;;;;;;5.86;99.61;99873.34;5052137;28;20033;-56
2023/01/15 01:01:50;;;;;;;9.82;2.13;;;;;;;5.85;99.66;99871.63;5052427;28;20020;-55
2023/01/15 01:04:15;;;;;;;7.18;2.30;;;;;;;5.86;99.51;99885.66;5052351;28;20020;-56
2023/01/15 01:06:41;;;;;;;9.02;2.35;;;;;;;5.84;99.76;99895.47;5046976;28;20051;-55
2023/01/15 01:09:06;;;;;;;9.60;2.53;;;;;;;5.83;99.31;99884.09;5052432;28;20391;-55
2023/01/15 01:11:33;;;;;;;10.95;2.58;;;;;;;5.82;99.56;99879.75;5048372;28;20036;-57
2023/01/15 01:14:00;;;;;;;12.07;2.67;;;;;;;5.82;97.85;99881.56;5052461;28;20021;-54
2023/01/15 01:16:29;;;;;;;7.97;2.45;;;;;;;5.81;99.44;99890.41;5052318;28;20052;-57
2023/01/15 01:18:55;;;;;;;10.43;2.47;;;;;;;5.79;99.80;99892.31;5050381;28;20112;-57
2023/01/15 01:21:21;;;;;;;7.07;2.10;;;;;;;5.79;99.44;99877.34;5052226;28;20021;-54
2023/01/15 01:23:47;;;;;;;10.73;2.55;;;;;;;5.78;99.38;99888.00;5052366;28;20035;-54
2023/01/15 01:26:12;;;;;;;11.00;2.38;;;;;;;5.77;99.59;99889.78;5052596;28;20096;-57
2023/01/15 01:28:38;;;;;;;8.50;2.47;;;;;;;5.77;99.85;99883.69;5046856;28;20064;-57
2023/01/15 01:31:05;;;;;;;10.95;2.05;;;;;;;5.75;98.79;99875.91;5043993;28;20062;-57
2023/01/15 01:33:30;;;;;;;9.85;2.70;;;;;;;5.74;98.01;99885.59;5051941;28;20091;-57
2023/01/15 01:35:56;;;;;;;12.50;2.55;;;;;;;5.74;98.32;99882.09;5044532;28;20475;-55
2023/01/15 01:38:21;;;;;;;10.60;2.70;;;;;;;5.73;98.31;99883.06;5050828;28;20021;-57
2023/01/15 01:40:47;;;;;;;10.73;2.17;;;;;;;5.72;97.86;99884.03;5052104;28;20505;-57
2023/01/15 01:43:21;;;;;;;8.85;2.28;;;;;;;5.71;97.86;99888.44;5048898;28;20533;-56
2023/01/15 01:45:47;;;;;;;17.38;2.58;;;;;;;5.70;97.72;99886.75;5052347;28;20479;-55
2023/01/15 01:48:15;;;;;;;10.27;2.50;;;;;;;5.70;98.06;99889.41;5051048;28;20067;-58
2023/01/15 01:50:41;;;;;;;8.30;2.20;;;;;;;5.69;97.47;99890.34;5041399;28;20120;-56
2023/01/15 01:53:22;;;;;;;9.40;2.20;;;;;;;5.71;97.00;99874.41;5041200;28;20367;-56
2023/01/15 01:55:49;;;;;;;8.73;2.40;;;;;;;5.70;97.08;99883.28;5051534;28;20094;-57
2023/01/15 01:58:16;;;;;;;8.38;2.33;;;;;;;5.69;97.43;99885.06;5024042;28;20028;-55
2023/01/15 02:00:45;;;;;;;11.77;2.58;;;;;;;5.69;96.81;99886.88;5040224;28;20029;-55
2023/01/15 02:03:11;;;;;;;10.57;2.30;;;;;;;5.67;96.45;99884.34;5051498;28;20021;-55
2023/01/15 02:05:41;;;;;;;11.45;2.20;;;;;;;5.66;96.84;99885.31;5048233;28;20522;-56
2023/01/15 02:08:06;;;;;;;10.18;2.25;;;;;;;5.66;97.55;99884.44;5036692;28;20032;-56
2023/01/15 02:10:32;;;;;;;8.55;1.85;;;;;;;5.66;97.04;99900.25;5050701;28;20033;-55
2023/01/15 02:13:12;;;;;;;8.02;2.28;;;;;;;5.66;96.87;99887.09;5051797;28;20040;-57
2023/01/15 02:15:44;;;;;;;8.02;2.10;;;;;;;5.64;96.29;99897.72;5048212;28;20125;-56
2023/01/15 02:18:30;;;;;;;11.52;2.40;;;;;;;5.64;96.85;99894.25;5051474;28;20551;-56
2023/01/15 02:21:00;;;;;;;12.63;2.63;;;;;;;5.63;96.82;99893.44;5051810;28;20028;-56
2023/01/15 02:23:40;;;;;;;13.68;2.83;;;;;;;5.62;96.46;99891.72;5047802;28;20402;-57
2023/01/15 02:26:30;;;;;;;8.52;1.98;;;;;;;5.62;97.31;99886.47;5051367;28;20025;-55
2023/01/15 02:28:58;;;;;;;8.77;2.25;;;;;;;5.59;97.36;99885.84;5048566;28;20029;-54
2023/01/15 02:31:29;;;;;;;5.63;1.92;;;;;;;5.59;96.81;99881.41;5051738;28;20059;-56
2023/01/15 02:34:02;;;;;;;8.85;2.35;;;;;;;5.60;96.67;99877.84;5051007;28;20044;-56
2023/01/15 02:36:30;;;;;;;11.27;2.53;;;;;;;5.58;96.44;99869.22;5041205;28;20037;-56
2023/01/15 02:39:00;;;;;;;10.45;2.13;;;;;;;5.56;96.96;99863.19;5050422;28;20025;-54
2023/01/15 02:41:32;;;;;;;12.50;2.35;;;;;;;5.55;96.14;99877.31;5040308;28;20053;-53
2023/01/15 02:44:00;;;;;;;7.38;2.30;;;;;;;5.53;95.82;99880.06;5050228;28;20053;-54
2023/01/15 02:46:31;;;;;;;13.50;2.70;;;;;;;5.53;95.59;99876.59;5051037;28;20025;-57
2023/01/15 02:48:58;;;;;;;14.20;2.35;;;;;;;5.54;95.91;99870.38;5051430;28;20029;-57
2023/01/15 02:51:35;;;;;;;11.35;2.40;;;;;;;5.51;96.10;99855.63;5045843;28;20036;-57
2023/01/15 02:54:05;;;;;;;10.57;2.20;;;;;;;5.48;96.24;99870.78;5051175;28;20029;-56
2023/01/15 02:56:34;;;;;;;13.07;2.50;;;;;;;5.47;95.91;99867.31;5050812;28;20017;-56
2023/01/15 02:59:02;;;;;;;;;;;;;;;5.52;97.42;99853.84;5041882;28;20057;-56
2023/01/15 03:01:35;;;;;;;12.25;2.80;;;;;;;5.48;95.00;99852.34;5047601;28;19935;-54
2023/01/15 03:04:09;;;;;;;8.18;2.35;;;;;;;5.45;94.98;99865.78;5050791;28;20502;-55
2023/01/15 03:06:46;;;;;;;8.32;2.47;;;;;;;5.45;94.94;99863.13;5052436;28;20032;-53
2023/01/15 03:09:13;;;;;;;9.82;1.98;;;;;;;5.42;94.96;99864.19;5054583;28;20032;-55
2023/01/15 03:11:46;;;;;;;10.68;2.50;;;;;;;5.41;94.91;99864.28;5051383;28;20166;-53
2023/01/15 03:14:34;;;;;;;11.20;2.40;;;;;;;5.43;95.39;99875.53;5049832;28;20029;-56
2023/01/15 03:17:07;;;;;;;10.73;2.50;;;;;;;5.40;95.55;99875.78;5054494;28;20041;-57
2023/01/15 03:19:55;;;;;;;10.10;2.28;;;;;;;5.41;95.13;99880.91;5048088;28;20290;-55
2023/01/15 03:22:23;;;;;;;13.25;2.30;;;;;;;5.40;94.95;99870.53;5045252;28;20033;-56
2023/01/15 03:24:53;;;;;;;10.02;2.65;;;;;;;5.39;94.59;99867.03;5054975;28;20028;-55
2023/01/15 03:27:20;;;;;;;11.77;2.53;;;;;;;5.40;93.74;99865.25;5050965;28;20029;-54
2023/01/15 03:29:49;;;;;;;15.68;3.05;;;;;;;5.38;93.66;99863.56;5054571;28;20112;-55
2023/01/15 03:32:18;;;;;;;15.60;2.70;;;;;;;5.37;94.20;99856.59;5047991;28;20124;-56
2023/01/15 03:34:48;;;;;;;9.40;2.35;;;;;;;5.37;94.22;99856.59;5054656;28;20059;-54
2023/01/15 03:37:14;;;;;;;11.35;2.60;;;;;;;5.37;93.82;99863.66;5049481;28;20041;-55
2023/01/15 03:39:40;;;;;;;7.80;2.05;;;;;;;5.38;93.46;99862.72;5054441;28;20029;-56
2023/01/15 03:42:15;;;;;;;13.95;3.30;;;;;;;5.36;93.92;99864.59;5050855;28;20036;-55
2023/01/15 03:44:53;;;;;;;10.52;2.35;;;;;;;5.35;93.98;99871.66;5047108;28;20036;-53
2023/01/15 03:47:47;;;;;;;16.73;2.57;;;;;;;5.36;94.16;99873.38;5049159;28;20064;-54
2023/01/15 03:50:27;;;;;;;10.95;2.40;;;;;;;5.34;94.04;99869.97;5052053;28;20471;-57
2023/01/15 03:53:17;;;;;;;16.45;2.30;;;;;;;5.33;93.98;99865.69;5054166;28;20033;-57
2023/01/15 03:56:14;;;;;;;8.15;2.15;;;;;;;5.32;93.89;99871.06;5047667;28;20025;-57
2023/01/15 03:58:59;;;;;;;12.77;2.38;;;;;;;5.31;94.03;99864.94;5009552;28;20049;-57
2023/01/15 04:01:30;;;;;;;13.40;2.50;;;;;;;5.29;94.47;99861.56;5039723;28;20021;-57
2023/01/15 04:03:58;;;;;;;9.50;2.20;;;;;;;5.28;93.72;99877.47;5054220;28;20029;-55
2023/01/15 04:06:26;;;;;;;11.73;2.40;;;;;;;5.29;93.58;99863.38;5052207;28;20036;-56
2023/01/15 04:08:53;;;;;;;10.10;2.30;;;;;;;5.30;93.08;99860.63;5054010;28;20492;-56
2023/01/15 04:11:25;;;;;;;10.93;2.58;;;;;;;5.30;93.03;99862.41;5053480;28;20025;-56
2023/01/15 04:13:51;;;;;;;8.95;2.55;;;;;;;5.29;93.23;99869.47;5053371;28;20025;-56
2023/01/15 04:16:30;;;;;;;8.00;2.25;;;;;;;5.29;92.57;99866.00;5051788;28;20052;-56
2023/01/15 04:18:55;;;;;;;12.88;2.40;;;;;;;5.28;92.76;99869.56;5053171;28;20110;-55
2023/01/15 04:21:21;;;;;;;11.27;2.25;;;;;;;5.28;92.11;99861.66;5043115;28;20088;-54
2023/01/15 04:23:47;;;;;;;12.07;2.42;;;;;;;5.26;92.72;99855.69;5053590;28;20036;-57
2023/01/15 04:26:12;;;;;;;11.57;2.50;;;;;;;5.26;91.96;99868.84;5052221;28;20027;-53
2023/01/15 04:28:38;;;;;;;8.63;1.83;;;;;;;5.25;91.35;99854.00;5053404;28;20397;-56
2023/01/15 04:31:03;;;;;;;11.25;2.33;;;;;;;5.24;92.03;99854.94;5034953;28;20384;-57
2023/01/15 04:33:29;;;;;;;14.00;2.33;;;;;;;5.22;92.45;99860.31;5052374;28;20467;-55
2023/01/15 04:35:54;;;;;;;11.00;2.17;;;;;;;5.21;92.60;99863.06;5053273;28;20072;-57
2023/01/15 04:38:19;;;;;;;10.75;2.20;;;;;;;5.18;92.92;99869.41;5050422;28;20574;-55
2023/01/15 04:46:13;;;;;;;11.50;2.22;;;;;;;5.13;93.90;99885.50;5045925;28;20047;-56
2023/01/15 04:48:38;;;;;;;12.10;2.78;;;;;;;5.11;93.49;99879.50;5052936;28;20017;-56
2023/01/15 04:51:05;;;;;;;12.43;2.53;;;;;;;5.12;93.25;99880.34;5052922;28;20036;-56
2023/01/15 04:53:30;;;;;;;10.90;2.78;;;;;;;5.13;93.00;99887.28;5050743;28;20047;-55
2023/01/15 04:56:00;;;;;;;13.57;2.70;;;;;;;5.13;93.06;99888.13;5045250;28;20029;-56
2023/01/15 04:58:26;;;;;;;10.10;2.38;;;;;;;5.11;93.11;99882.13;5048252;28;20057;-56
2023/01/15 05:00:51;;;;;;;11.07;2.33;;;;;;;5.13;92.93;99888.13;5044752;28;20114;-56
2023/01/15 05:03:16;;;;;;;7.90;2.17;;;;;;;5.13;92.62;99876.75;5052537;28;20036;-56
2023/01/15 05:05:41;;;;;;;9.75;2.47;;;;;;;5.11;93.23;99870.75;5042548;28;20494;-55
2023/01/15 05:08:07;;;;;;;11.32;2.33;;;;;;;5.09;93.51;99886.66;5051372;28;20950;-54
2023/01/15 05:10:32;;;;;;;10.25;2.45;;;;;;;5.09;93.24;99875.28;5053243;28;20021;-53
2023/01/15 05:12:58;;;;;;;12.23;2.63;;;;;;;5.07;93.60;99867.50;5040638;28;20039;-53
2023/01/15 05:15:23;;;;;;;15.40;2.83;;;;;;;5.07;94.10;99877.19;5052270;28;20048;-55
2023/01/15 05:17:48;;;;;;;12.32;2.42;;;;;;;5.09;93.98;99877.91;5050825;28;20368;-54
2023/01/15 05:20:14;;;;;;;13.02;2.50;;;;;;;5.08;93.44;99877.09;5052636;28;20083;-52
2023/01/15 05:22:39;;;;;;;13.93;2.65;;;;;;;5.07;93.86;99869.28;5051877;28;20048;-56
2023/01/15 05:25:05;;;;;;;14.32;3.15;;;;;;;5.08;93.04;99868.31;5047777;28;20802;-55
2023/01/15 05:27:30;;;;;;;13.30;2.63;;;;;;;5.06;92.70;99862.34;5051762;28;20025;-57
2023/01/15 05:29:55;;;;;;;13.60;2.67;;;;;;;5.09;92.50;99867.38;5051963;28;20017;-52
2023/01/15 05:32:21;;;;;;;10.40;2.25;;;;;;;5.09;91.38;99865.59;5044494;28;20112;-55
2023/01/15 05:34:46;;;;;;;10.40;2.38;;;;;;;5.10;92.27;99869.91;5038135;28;20044;-55
2023/01/15 05:37:11;;;;;;;7.93;1.92;;;;;;;5.10;91.91;99863.81;5052492;28;20029;-56
2023/01/15 05:39:37;;;;;;;10.68;2.17;;;;;;;5.09;92.71;99859.50;5052299;28;20064;-54
2023/01/15 05:42:02;;;;;;;13.20;2.50;;;;;;;5.08;93.42;99865.69;5051628;28;20124;-53
2023/01/15 05:44:29;;;;;;;10.50;2.50;;;;;;;5.08;93.01;99863.06;5047337;28;20037;-54
2023/01/15 05:47:05;;;;;;;8.18;2.30;;;;;;;5.07;93.18;99856.13;5051854;28;20017;-55
2023/01/15 05:49:31;;;;;;;9.50;2.25;;;;;;;5.07;93.30;99856.13;5050943;28;20063;-55
2023/01/15 05:51:59;;;;;;;15.02;2.85;;;;;;;5.03;93.74;99847.63;5051665;28;20467;-56
2023/01/15 05:54:30;;;;;;;8.32;2.58;;;;;;;5.01;93.93;99852.13;5052187;28;20483;-55
2023/01/15 05:56:55;;;;;;;10.02;2.53;;;;;;;5.02;94.69;99852.97;5044412;28;20546;-57
2023/01/15 05:59:23;;;;;;;12.70;2.72;;;;;;;5.02;94.59;99855.63;5040303;28;20072;-56
2023/01/15 06:01:48;;;;;;;11.30;2.38;;;;;;;5.02;95.06;99850.34;5051505;28;20059;-55
2023/01/15 06:04:14;;;;;;;14.07;2.60;;;;;;;5.01;95.61;99852.13;5050044;28;20052;-54
2023/01/15 06:06:41;;;;;;;14.50;2.70;;;;;;;5.01;95.56;99852.13;5051620;28;20455;-56
2023/01/15 06:09:06;;;;;;;8.52;2.47;;;;;;;5.02;96.23;99845.91;5051786;28;20029;-56
2023/01/15 06:11:32;;;;;;;12.95;2.80;;;;;;;5.03;96.12;99860.78;5041269;28;20036;-57
2023/01/15 06:13:58;;;;;;;11.90;2.97;;;;;;;5.04;96.54;99864.25;5048850;28;20036;-56
2023/01/15 06:16:23;;;;;;;12.25;3.03;;;;;;;5.03;96.40;99868.66;5050867;28;20475;-56
2023/01/15 06:18:49;;;;;;;15.55;2.70;;;;;;;5.05;96.61;99866.75;5052014;28;20028;-56
2023/01/15 06:21:14;;;;;;;13.32;2.80;;;;;;;5.06;95.90;99883.38;5051399;28;20025;-56
2023/01/15 06:23:41;;;;;;;11.73;2.58;;;;;;;5.06;96.09;99886.03;5046152;28;20025;-55
2023/01/15 06:26:10;;;;;;;10.60;2.45;;;;;;;5.05;95.80;99893.09;5051192;28;20056;-56
2023/01/15 06:28:35;;;;;;;;;;;;;;;5.09;96.00;99880.53;5052099;28;20471;-55
2023/01/15 06:31:04;;;;;;;10.67;2.07;;;;;;;5.04;96.00;99880.03;5051592;28;19905;-57
2023/01/15 06:33:30;;;;;;;12.93;2.80;;;;;;;5.03;95.53;99883.59;5046079;28;20040;-57
2023/01/15 06:35:55;;;;;;;8.85;2.10;;;;;;;4.98;95.21;99900.56;5051501;28;20083;-56
2023/01/15 06:38:20;;;;;;;13.55;2.50;;;;;;;4.97;95.39;99898.84;5051312;28;20481;-56
2023/01/15 06:40:45;;;;;;;11.93;3.05;;;;;;;4.94;95.07;99892.97;5052283;28;20021;-57
2023/01/15 06:48:39;;;;;;;11.98;2.50;;;;;;;4.88;93.94;99878.47;5055292;28;20082;-55
2023/01/15 06:51:05;;;;;;;10.65;2.35;;;;;;;4.85;93.77;99872.56;5052221;28;20534;-55
2023/01/15 06:53:30;;;;;;;12.93;2.97;;;;;;;4.84;92.85;99884.84;5055105;28;20047;-53
2023/01/15 06:55:55;;;;;;;16.27;2.58;;;;;;;4.84;93.68;99889.28;5049141;28;20036;-56
2023/01/15 06:58:23;;;;;;;11.35;2.15;;;;;;;4.81;92.97;99885.94;5048280;28;20472;-56
2023/01/15 07:00:53;;;;;;;14.30;2.50;;;;;;;4.78;93.78;99899.28;5041395;28;20398;-55
2023/01/15 07:03:19;;;;;;;11.20;2.78;;;;;;;4.76;93.83;99895.91;5050041;28;20983;-64
2023/01/15 07:05:44;;;;;;;9.75;2.30;;;;;;;4.74;93.73;99892.53;5044978;28;20100;-56
2023/01/15 07:08:09;;;;;;;10.80;2.20;;;;;;;4.74;93.61;99891.69;5054937;28;20055;-54
2023/01/15 07:10:35;;;;;;;15.43;2.78;;;;;;;4.74;93.85;99896.97;5045155;28;20501;-55
2023/01/15 07:13:00;;;;;;;10.90;2.60;;;;;;;4.71;93.85;99894.53;5048449;28;20064;-54
2023/01/15 07:15:25;;;;;;;6.53;2.38;;;;;;;4.70;94.25;99898.13;5049997;28;20037;-55
2023/01/15 07:17:55;;;;;;;10.57;2.22;;;;;;;4.67;94.35;99911.47;5053529;28;20417;-54
2023/01/15 07:20:20;;;;;;;11.18;2.72;;;;;;;4.64;94.63;99907.25;5045824;28;20135;-56
2023/01/15 07:22:48;;;;;;;11.88;2.50;;;;;;;4.62;95.21;99904.72;5044936;28;20436;-57
2023/01/15 07:25:14;;;;;;;9.70;2.25;;;;;;;4.66;94.57;99909.78;5039622;28;20030;-56
2023/01/15 07:27:39;;;;;;;10.60;2.17;;;;;;;4.65;94.89;99924.72;5039046;28;20084;-57
2023/01/15 07:30:05;;;;;;;11.50;2.38;;;;;;;4.64;94.32;99926.50;5044430;28;20036;-57
2023/01/15 07:32:30;;;;;;;12.35;2.25;;;;;;;4.64;94.55;99926.50;5041760;28;20473;-56
2023/01/15 07:34:55;;;;;;;9.77;2.08;;;;;;;4.64;94.98;99917.78;5043006;28;20022;-57
2023/01/15 07:37:20;;;;;;;8.18;2.17;;;;;;;4.64;92.99;99923.88;5039470;28;20033;-56
2023/01/15 07:39:46;;;;;;;12.50;2.05;;;;;;;4.67;92.82;99935.16;5040902;28;20045;-56
2023/01/15 07:50:23;;;;;;;10.82;2.65;;;;;;;4.71;92.31;99947.13;5043721;28;20071;-57
2023/01/15 07:52:48;;;;;;;9.60;2.65;;;;;;;4.71;91.71;99944.50;5051512;28;20025;-56
2023/01/15 07:55:14;;;;;;;11.10;2.33;;;;;;;4.71;91.84;99949.75;5046625;28;20083;-56
2023/01/15 07:57:41;;;;;;;6.53;1.92;;;;;;;4.71;91.86;99952.41;5039856;28;20070;-59
2023/01/15 08:00:13;;;;;;;11.77;1.90;;;;;;;4.71;91.33;99944.50;5038531;28;20026;-56
2023/01/15 08:02:39;;;;;;;8.88;2.20;;;;;;;4.70;91.57;99951.56;5043197;28;20059;-55
2023/01/15 08:05:05;;;;;;;11.20;2.25;;;;;;;4.70;90.94;99946.31;5051222;28;20059;-57
2023/01/15 08:07:36;;;;;;;11.18;2.40;;;;;;;4.66;90.72;99954.50;5042588;28;20479;-57
2023/01/15 08:10:01;;;;;;;6.93;2.05;;;;;;;4.63;90.14;99948.50;5056490;28;20509;-55
2023/01/15 08:15:13;;;;;;;12.70;2.20;;;;;;;4.57;90.06;99943.63;5039677;28;20048;-57
2023/01/15 08:17:41;;;;;;;11.10;2.45;;;;;;;4.54;90.01;99956.16;5043526;28;20499;-57
2023/01/15 08:20:10;;;;;;;7.70;2.33;;;;;;;4.52;89.89;99956.25;5039619;28;20048;-56
2023/01/15 08:22:37;;;;;;;6.28;2.10;;;;;;;4.50;89.59;99955.50;5043303;28;20028;-56
2023/01/15 08:25:03;;;;;;;7.57;2.03;;;;;;;4.47;89.76;99960.13;5043398;28;20475;-53
2023/01/15 08:27:29;;;;;;;7.03;1.83;;;;;;;4.46;89.96;99956.63;5039540;28;20079;-56
2023/01/15 08:29:55;;;;;;;7.57;2.15;;;;;;;4.41;90.27;99959.59;5036051;28;20403;-56
2023/01/15 08:32:21;;;;;;;10.55;2.30;;;;;;;4.39;90.24;99961.44;5041875;28;20028;-56
2023/01/15 08:34:46;;;;;;;11.00;2.22;;;;;;;4.38;90.36;99956.28;5047647;28;20025;-56
2023/01/15 08:37:11;;;;;;;6.38;1.65;;;;;;;4.38;90.32;99953.66;5049607;28;20021;-56
2023/01/15 08:39:36;;;;;;;9.38;2.17;;;;;;;4.39;90.64;99956.19;5041338;28;20056;-52
2023/01/15 08:42:02;;;;;;;7.47;1.75;;;;;;;4.38;90.54;99956.28;5033830;28;20021;-55
2023/01/15 08:44:27;;;;;;;8.30;2.00;;;;;;;4.37;91.04;99952.84;5021334;28;20041;-56
2023/01/15 08:46:52;;;;;;;5.35;1.77;;;;;;;4.39;91.24;99944.84;5040322;28;20085;-55
2023/01/15 08:49:19;;;;;;;4.75;1.80;;;;;;;4.42;90.99;99947.28;5033169;28;20491;-56
2023/01/15 08:51:48;;;;;;;6.07;1.80;;;;;;;4.42;91.31;99945.47;5036085;28;20029;-56
2023/01/15 08:54:14;;;;;;;11.68;2.42;;;;;;;4.44;91.05;99950.66;5040930;28;20021;-54
2023/01/15 08:56:40;;;;;;;12.13;2.28;;;;;;;4.47;91.08;99945.19;5042564;28;20029;-55
2023/01/15 08:59:07;;;;;;;8.40;1.83;;;;;;;4.49;91.65;99947.72;5048983;28;20021;-56
2023/01/15 09:01:32;;;;;;;6.35;1.73;;;;;;;4.51;91.44;99935.31;5048890;28;20029;-54
2023/01/15 09:03:58;;;;;;;7.53;2.03;;;;;;;4.55;91.78;99934.19;5051966;28;20032;-53
2023/01/15 09:06:23;;;;;;;10.25;1.95;;;;;;;4.61;91.48;99931.97;5033834;28;20025;-53
2023/01/15 09:08:49;;;;;;;10.95;2.72;;;;;;;4.63;91.47;99930.09;5052943;28;20024;-55
2023/01/15 09:11:14;;;;;;;7.82;2.15;;;;;;;4.70;91.36;99934.94;5049662;28;20036;-52
2023/01/15 09:13:39;;;;;;;8.05;2.35;;;;;;;4.74;91.32;99925.88;5044882;28;20033;-55
2023/01/15 09:16:08;;;;;;;10.73;2.17;;;;;;;4.78;91.17;99925.59;5037166;28;20474;-55
2023/01/15 09:18:35;;;;;;;9.98;2.50;;;;;;;4.84;90.59;99928.75;5027919;28;20537;-54
2023/01/15 09:21:00;;;;;;;10.95;2.20;;;;;;;4.87;91.04;99926.75;5050706;28;20017;-55
2023/01/15 09:23:26;;;;;;;9.68;2.30;;;;;;;4.94;90.97;99933.28;5048353;28;20039;-54
2023/01/15 09:25:55;;;;;;;9.05;2.53;;;;;;;5.00;90.01;99937.28;5052067;28;20055;-55
2023/01/15 09:28:20;;;;;;;;;;;;;;;5.08;90.98;99937.63;5049107;28;20115;-54
2023/01/15 09:30:46;;;;;;;11.65;2.20;;;;;;;5.13;89.23;99932.88;5051115;28;19999;-56
2023/01/15 09:33:11;;;;;;;8.70;2.05;;;;;;;5.18;89.81;99943.94;5049686;28;20053;-52
2023/01/15 09:35:36;;;;;;;13.45;2.40;;;;;;;5.26;89.10;99943.41;5052029;28;20052;-54
2023/01/15 09:38:02;;;;;;;12.27;2.80;;;;;;;5.34;89.02;99929.69;5051432;28;20021;-55
2023/01/15 09:40:48;;;;;;;10.65;2.67;;;;;;;5.42;89.00;99939.72;5033551;28;20391;-52
2023/01/15 09:43:21;;;;;;;12.38;2.70;;;;;;;5.50;87.74;99942.66;5049938;28;20542;-54
2023/01/15 09:45:53;;;;;;;11.48;2.20;;;;;;;5.46;88.30;99947.31;5051155;28;20114;-54
2023/01/15 09:48:35;;;;;;;10.73;2.10;;;;;;;5.49;87.86;99939.16;5049824;28;20521;-56
2023/01/15 09:51:19;;;;;;;12.23;2.28;;;;;;;5.51;87.53;99939.06;5038996;28;20029;-54
2023/01/15 09:54:05;;;;;;;11.95;2.30;;;;;;;5.54;87.12;99946.75;5048515;28;20037;-53
2023/01/15 09:56:33;;;;;;;11.02;2.25;;;;;;;5.59;86.10;99943.78;5051543;28;20368;-54
2023/01/15 09:59:05;;;;;;;12.10;2.50;;;;;;;5.60;85.37;99954.22;5042016;28;20356;-55
2023/01/15 10:01:32;;;;;;;9.85;2.35;;;;;;;5.65;85.74;99952.09;5046315;28;20045;-53
2023/01/15 10:04:05;;;;;;;11.15;2.25;;;;;;;5.69;84.79;99968.53;5051771;28;20045;-55
2023/01/15 10:06:57;;;;;;;9.32;2.63;;;;;;;5.73;84.95;99943.69;5029510;28;20383;-56
2023/01/15 10:09:33;;;;;;;16.13;2.63;;;;;;;5.79;84.55;99945.03;5009234;28;20075;-55
2023/01/15 10:15:01;;;;;;;10.82;3.00;;;;;;;5.83;83.63;99965.78;5047098;28;20044;-55
2023/01/15 10:17:33;;;;;;;10.45;2.25;;;;;;;5.84;82.68;99971.88;5055391;28;20052;-53
2023/01/15 10:19:59;;;;;;;11.20;2.47;;;;;;;5.85;83.24;99970.94;5041070;28;20038;-56
2023/01/15 10:22:43;;;;;;;10.98;2.35;;;;;;;5.97;83.86;99972.72;5043372;28;20033;-55
2023/01/15 10:25:14;;;;;;;12.23;2.70;;;;;;;6.00;84.03;99977.78;5036093;28;20025;-54
2023/01/15 10:27:45;;;;;;;9.30;2.20;;;;;;;6.03;83.18;99956.47;5037328;28;20053;-55
2023/01/15 10:30:16;;;;;;;10.63;2.70;;;;;;;6.05;83.09;99961.66;5037173;28;20516;-55
2023/01/15 10:32:55;;;;;;;12.18;2.90;;;;;;;6.04;83.49;99968.69;5041667;28;20586;-55
2023/01/15 10:35:30;;;;;;;;;;;;;;;6.09;85.21;99969.19;5040318;28;20034;-54
2023/01/15 10:38:43;;;;;;;13.18;2.60;;;;;;;6.14;83.63;99957.50;5042558;28;20371;-55
2023/01/15 10:41:23;;;;;;;10.27;2.33;;;;;;;6.16;83.29;99968.78;4979395;28;20555;-56
2023/01/15 10:43:56;;;;;;;7.53;2.00;;;;;;;6.17;82.57;99968.66;5054921;28;20029;-52
2023/01/15 10:46:26;;;;;;;10.77;2.15;;;;;;;6.22;82.29;99968.34;5054713;28;20123;-54
2023/01/15 10:49:05;;;;;;;8.25;2.13;;;;;;;6.33;83.45;99981.59;5054009;28;20025;-54
2023/01/15 10:51:39;;;;;;;9.35;2.13;;;;;;;6.40;82.03;99947.69;5055215;28;20029;-54
2023/01/15 10:54:15;;;;;;;7.35;1.80;;;;;;;6.44;81.28;99984.25;5047732;28;20028;-53
2023/01/15 10:57:12;;;;;;;7.88;1.92;;;;;;;6.50;81.81;99953.13;5049295;28;20033;-55
2023/01/15 10:59:57;;;;;;;13.48;2.13;;;;;;;6.48;80.16;99943.53;5053525;28;20048;-55
2023/01/15 11:02:32;;;;;;;5.55;1.80;;;;;;;6.45;80.63;99961.38;5045265;28;20052;-54
2023/01/15 11:04:58;;;;;;;8.68;1.88;;;;;;;6.48;80.74;99950.63;5032233;28;20056;-52
2023/01/15 11:07:48;;;;;;;6.60;2.17;;;;;;;6.57;80.70;99957.81;5045079;28;20065;-54
2023/01/15 11:10:17;;;;;;;7.72;1.73;;;;;;;6.57;79.96;99964.91;5037055;28;20080;-52
2023/01/15 11:21:18;;;;;;;8.68;2.20;;;;;;;6.56;79.37;99966.72;5049697;28;20115;-51
2023/01/15 11:23:44;;;;;;;7.72;2.13;;;;;;;6.61;78.84;99975.13;5053062;28;20094;-51
2023/01/15 11:26:18;;;;;;;7.78;1.70;;;;;;;6.60;79.21;99981.34;5050156;28;20494;-52
2023/01/15 11:28:45;;;;;;;6.10;1.80;;;;;;;6.60;80.12;99959.41;5052097;28;20037;-54
2023/01/15 11:31:11;;;;;;;8.07;2.00;;;;;;;6.62;80.15;99986.53;5043544;28;20108;-53
2023/01/15 11:33:38;;;;;;;7.15;1.92;;;;;;;6.62;79.59;99968.03;5038003;28;20040;-53
2023/01/15 11:36:07;;;;;;;5.38;1.63;;;;;;;6.60;80.16;99965.53;5038542;28;20065;-52
2023/01/15 11:38:44;;;;;;;3.13;1.40;;;;;;;6.62;80.00;99982.06;5045032;28;20060;-52
2023/01/15 11:52:54;;;;;;;8.40;1.63;;;;;;;6.64;79.74;99977.53;5040770;28;20052;-53
2023/01/15 11:55:20;;;;;;;;;;;;;;;6.73;79.94;99972.50;5040417;28;20132;-55
2023/01/15 11:57:48;;;;;;;5.07;1.75;;;;;;;6.63;79.28;99975.03;5042057;28;19948;-54
2023/01/15 12:00:25;;;;;;;6.40;1.75;;;;;;;6.63;79.62;99991.69;5043510;28;20045;-55
2023/01/15 12:02:58;;;;;;;6.85;1.55;;;;;;;6.63;78.68;99978.50;5034237;28;20049;-57
2023/01/15 12:05:28;;;;;;;4.15;1.70;;;;;;;6.63;78.82;99977.66;5037469;28;20072;-55
2023/01/15 12:07:59;;;;;;;8.68;2.00;;;;;;;6.63;79.01;99980.28;5035510;28;20050;-55
2023/01/15 12:14:00;;;;;;;9.85;1.98;;;;;;;6.58;79.91;99964.81;5033146;28;20414;-56
2023/01/15 12:16:40;;;;;;;7.30;1.75;;;;;;;6.53;78.57;99968.72;5042697;28;20049;-56
2023/01/15 12:19:12;;;;;;;5.43;1.40;;;;;;;6.52;79.95;99973.16;5040835;28;20041;-55
2023/01/15 12:22:08;;;;;;;4.93;1.40;;;;;;;6.53;80.68;99971.34;5042064;28;20450;-55
2023/01/15 12:24:41;;;;;;;8.82;1.70;;;;;;;6.52;81.72;99962.59;5035879;28;20109;-53
2023/01/15 12:27:13;;;;;;;2.63;1.48;;;;;;;6.51;79.71;99955.63;5038752;28;20083;-54
2023/01/15 12:29:47;;;;;;;7.72;1.63;;;;;;;6.53;80.43;99961.66;5030295;28;20045;-54
2023/01/15 12:32:22;;;;;;;5.82;1.90;;;;;;;6.56;79.63;99957.94;5038220;28;20041;-55
2023/01/15 12:34:54;;;;;;;5.80;1.70;;;;;;;6.51;79.45;99954.81;5039067;28;20036;-56
2023/01/15 12:37:25;;;;;;;5.80;1.40;;;;;;;6.46;79.67;99966.56;5041828;28;20036;-52